createdAt,value
2017-03-06T00:00:15.481Z,10.69
2017-03-06T00:00:30.122Z,10.69
2017-03-06T00:00:44.739Z,10.78
2017-03-06T00:00:59.336Z,10.69
2017-03-06T00:01:24.191Z,10.69
2017-03-06T00:01:38.787Z,10.59
2017-03-06T00:01:57.928Z,10.98
2017-03-06T00:02:13.787Z,10.98
2017-03-06T00:02:29.283Z,10.98
2017-03-06T00:02:43.955Z,10.98
2017-03-06T00:02:58.664Z,10.98
2017-03-06T00:03:13.267Z,10.88
2017-03-06T00:03:27.894Z,10.69
2017-03-06T00:03:42.601Z,10.78
2017-03-06T00:03:57.195Z,11.07
2017-03-06T00:04:11.838Z,10.69
2017-03-06T00:04:26.538Z,10.88
2017-03-06T00:04:41.139Z,11.07
2017-03-06T00:04:55.733Z,10.98
2017-03-06T00:05:10.333Z,10.98
2017-03-06T00:05:24.964Z,11.07
2017-03-06T00:05:39.503Z,11.36
2017-03-06T00:05:54.078Z,11.36
2017-03-06T00:06:08.715Z,11.36
2017-03-06T00:06:23.328Z,10.98
2017-03-06T00:06:37.941Z,11.07
2017-03-06T00:06:52.547Z,11.07
2017-03-06T00:07:07.126Z,11.36
2017-03-06T00:07:21.724Z,10.98
2017-03-06T00:07:36.317Z,10.69
2017-03-06T00:07:50.998Z,11.36
2017-03-06T00:08:05.629Z,11.36
2017-03-06T00:08:20.245Z,11.36
2017-03-06T00:08:34.808Z,11.27
2017-03-06T00:08:49.423Z,10.98
2017-03-06T00:09:04.005Z,10.98
2017-03-06T00:09:18.613Z,11.07
2017-03-06T00:09:36.288Z,11.07
2017-03-06T00:09:50.925Z,11.07
2017-03-06T00:10:05.683Z,10.98
2017-03-06T00:10:23.011Z,10.88
2017-03-06T00:10:37.595Z,10.88
2017-03-06T00:10:52.212Z,10.78
2017-03-06T00:11:07.032Z,10.98
2017-03-06T00:11:21.652Z,10.98
2017-03-06T00:11:36.211Z,10.98
2017-03-06T00:11:50.858Z,10.78
2017-03-06T00:12:05.501Z,10.98
2017-03-06T00:12:20.185Z,10.88
2017-03-06T00:12:34.741Z,10.78
2017-03-06T00:12:50.765Z,10.88
2017-03-06T00:13:05.362Z,10.88
2017-03-06T00:13:20.164Z,10.98
2017-03-06T00:13:35.456Z,11.07
2017-03-06T00:13:49.989Z,11.07
2017-03-06T00:14:04.616Z,10.98
2017-03-06T00:14:19.263Z,10.98
2017-03-06T00:14:33.854Z,10.79
2017-03-06T00:14:48.464Z,10.98
2017-03-06T00:15:03.096Z,10.98
2017-03-06T00:15:17.675Z,10.98
2017-03-06T00:15:32.327Z,10.98
2017-03-06T00:15:46.965Z,10.79
2017-03-06T00:16:01.636Z,10.98
2017-03-06T00:16:16.202Z,10.98
2017-03-06T00:16:30.779Z,10.98
2017-03-06T00:16:45.602Z,10.98
2017-03-06T00:17:00.179Z,10.89
2017-03-06T00:17:14.833Z,10.98
2017-03-06T00:17:29.422Z,10.79
2017-03-06T00:17:43.942Z,11.08
2017-03-06T00:17:58.551Z,10.98
2017-03-06T00:18:13.138Z,10.98
2017-03-06T00:18:27.798Z,10.98
2017-03-06T00:18:42.375Z,10.89
2017-03-06T00:18:56.889Z,10.98
2017-03-06T00:19:11.567Z,10.98
2017-03-06T00:19:26.128Z,10.89
2017-03-06T00:19:40.742Z,10.98
2017-03-06T00:19:55.326Z,10.98
2017-03-06T00:20:09.952Z,10.89
2017-03-06T00:20:24.589Z,10.89
2017-03-06T00:20:39.416Z,10.89
2017-03-06T00:20:53.977Z,10.98
2017-03-06T00:21:08.618Z,11.07
2017-03-06T00:21:23.177Z,10.78
2017-03-06T00:21:37.765Z,10.98
2017-03-06T00:21:52.394Z,11.27
2017-03-06T00:22:08.434Z,11.46
2017-03-06T00:22:22.994Z,11.85
2017-03-06T00:22:37.562Z,11.94
2017-03-06T00:22:52.187Z,12.04
2017-03-06T00:23:06.999Z,12.52
2017-03-06T00:23:21.640Z,12.23
2017-03-06T00:23:36.270Z,12.42
2017-03-06T00:23:50.942Z,12.33
2017-03-06T00:24:05.587Z,12.71
2017-03-06T00:24:20.222Z,12.71
2017-03-06T00:24:35.905Z,12.62
2017-03-06T00:24:50.585Z,12.62
2017-03-06T00:25:05.404Z,12.62
2017-03-06T00:25:20.095Z,12.62
2017-03-06T00:25:34.767Z,13
2017-03-06T00:25:49.361Z,13.1
2017-03-06T00:26:03.941Z,13.1
2017-03-06T00:26:18.761Z,13.1
2017-03-06T00:26:33.423Z,13.1
2017-03-06T00:26:48.120Z,13.1
2017-03-06T00:27:02.688Z,12.9
2017-03-06T00:27:17.302Z,12.71
2017-03-06T00:27:31.935Z,12.62
2017-03-06T00:27:46.601Z,12.71
2017-03-06T00:28:01.302Z,12.71
2017-03-06T00:28:15.959Z,12.71
2017-03-06T00:28:30.552Z,12.71
2017-03-06T00:28:45.150Z,12.33
2017-03-06T00:28:59.756Z,12.23
2017-03-06T00:29:14.377Z,12.33
2017-03-06T00:29:28.967Z,12.23
2017-03-06T00:29:43.505Z,12.23
2017-03-06T00:29:58.115Z,12.33
2017-03-06T00:30:12.703Z,12.23
2017-03-06T00:30:27.317Z,12.23
2017-03-06T00:30:42.037Z,12.23
2017-03-06T00:30:56.706Z,12.04
2017-03-06T00:31:11.328Z,12.13
2017-03-06T00:31:25.910Z,12.23
2017-03-06T00:31:40.467Z,12.23
2017-03-06T00:31:55.135Z,12.04
2017-03-06T00:32:09.720Z,12.04
2017-03-06T00:32:24.423Z,12.04
2017-03-06T00:32:39.066Z,12.13
2017-03-06T00:32:53.623Z,12.04
2017-03-06T00:33:08.263Z,12.04
2017-03-06T00:33:22.887Z,12.04
2017-03-06T00:33:37.497Z,12.23
2017-03-06T00:33:52.053Z,12.04
2017-03-06T00:34:07.830Z,12.04
2017-03-06T00:34:22.472Z,12.03
2017-03-06T00:34:37.072Z,12.13
2017-03-06T00:34:52.870Z,12.23
2017-03-06T00:35:07.420Z,12.13
2017-03-06T00:35:22.778Z,12.23
2017-03-06T00:35:38.794Z,12.03
2017-03-06T00:35:54.180Z,12.03
2017-03-06T00:36:15.718Z,11.94
2017-03-06T00:36:30.353Z,11.75
2017-03-06T00:36:44.920Z,11.85
2017-03-06T00:36:59.581Z,11.84
2017-03-06T00:37:14.182Z,11.85
2017-03-06T00:37:29.674Z,11.85
2017-03-06T00:37:44.354Z,11.85
2017-03-06T00:37:58.962Z,11.94
2017-03-06T00:38:13.622Z,11.85
2017-03-06T00:38:28.262Z,11.75
2017-03-06T00:38:42.937Z,11.94
2017-03-06T00:38:57.582Z,11.94
2017-03-06T00:39:12.201Z,11.94
2017-03-06T00:39:26.766Z,11.85
2017-03-06T00:39:41.390Z,11.75
2017-03-06T00:39:56.004Z,12.04
2017-03-06T00:40:10.803Z,11.85
2017-03-06T00:40:25.404Z,11.65
2017-03-06T00:40:39.996Z,11.65
2017-03-06T00:40:54.676Z,11.65
2017-03-06T00:41:09.235Z,11.55
2017-03-06T00:41:23.840Z,11.46
2017-03-06T00:41:38.433Z,11.65
2017-03-06T00:41:53.068Z,11.27
2017-03-06T00:42:07.677Z,11.36
2017-03-06T00:42:22.275Z,10.98
2017-03-06T00:42:36.876Z,11.17
2017-03-06T00:42:51.412Z,11.17
2017-03-06T00:43:06.652Z,11.17
2017-03-06T00:43:21.249Z,11.07
2017-03-06T00:43:35.894Z,10.98
2017-03-06T00:43:50.494Z,11.08
2017-03-06T00:44:05.136Z,11.08
2017-03-06T00:44:19.762Z,10.98
2017-03-06T00:44:34.382Z,10.89
2017-03-06T00:44:49.024Z,11.27
2017-03-06T00:45:03.632Z,10.98
2017-03-06T00:45:18.247Z,11.37
2017-03-06T00:45:32.812Z,11.08
2017-03-06T00:45:47.406Z,10.98
2017-03-06T00:46:02.006Z,10.98
2017-03-06T00:46:16.655Z,10.98
2017-03-06T00:46:31.306Z,10.98
2017-03-06T00:46:45.884Z,11.08
2017-03-06T00:47:00.494Z,10.89
2017-03-06T00:47:15.089Z,10.89
2017-03-06T00:47:29.665Z,11.08
2017-03-06T00:47:44.228Z,11.08
2017-03-06T00:47:59.692Z,10.89
2017-03-06T00:48:16.634Z,10.98
2017-03-06T00:48:31.263Z,10.98
2017-03-06T00:48:45.939Z,10.89
2017-03-06T00:49:00.584Z,10.89
2017-03-06T00:49:18.260Z,10.89
2017-03-06T00:49:32.880Z,10.89
2017-03-06T00:49:47.426Z,10.89
2017-03-06T00:50:02.049Z,11.18
2017-03-06T00:50:16.945Z,10.98
2017-03-06T00:50:32.784Z,11.27
2017-03-06T00:50:47.402Z,11.08
2017-03-06T00:51:02.026Z,11.08
2017-03-06T00:51:16.617Z,10.98
2017-03-06T00:51:31.294Z,10.89
2017-03-06T00:51:45.896Z,10.98
2017-03-06T00:52:00.467Z,10.79
2017-03-06T00:52:15.049Z,10.98
2017-03-06T00:52:29.685Z,11.08
2017-03-06T00:52:45.546Z,10.98
2017-03-06T00:53:06.528Z,10.98
2017-03-06T00:53:21.172Z,11.08
2017-03-06T00:53:35.709Z,10.98
2017-03-06T00:53:50.300Z,11.08
2017-03-06T00:54:04.906Z,10.98
2017-03-06T00:54:19.557Z,11.08
2017-03-06T00:54:34.179Z,11.37
2017-03-06T00:54:48.781Z,10.98
2017-03-06T00:55:03.338Z,10.98
2017-03-06T00:55:18.104Z,11.08
2017-03-06T00:55:32.655Z,10.89
2017-03-06T00:55:47.291Z,11.08
2017-03-06T00:56:01.950Z,11.27
2017-03-06T00:56:16.554Z,11.08
2017-03-06T00:56:31.178Z,11.08
2017-03-06T00:56:45.810Z,11.08
2017-03-06T00:57:00.968Z,11.08
2017-03-06T00:57:15.571Z,11.18
2017-03-06T00:57:30.202Z,11.27
2017-03-06T00:57:44.766Z,11.18
2017-03-06T00:57:59.422Z,11.08
2017-03-06T00:58:14.035Z,11.27
2017-03-06T00:58:28.680Z,11.27
2017-03-06T00:58:43.286Z,11.27
2017-03-06T00:58:57.913Z,11.18
2017-03-06T00:59:12.475Z,11.46
2017-03-06T00:59:27.092Z,11.37
2017-03-06T00:59:41.699Z,11.27
2017-03-06T00:59:56.393Z,11.08
2017-03-06T01:00:11.064Z,11.18
2017-03-06T01:00:25.658Z,11.18
2017-03-06T01:00:40.415Z,11.18
2017-03-06T01:00:55.008Z,11.27
2017-03-06T01:01:09.620Z,11.08
2017-03-06T01:01:25.445Z,11.18
2017-03-06T01:01:40.102Z,10.98
2017-03-06T01:01:54.691Z,11.18
2017-03-06T01:02:09.357Z,11.08
2017-03-06T01:02:30.239Z,11.08
2017-03-06T01:02:44.892Z,11.08
2017-03-06T01:02:59.542Z,11.27
2017-03-06T01:03:14.154Z,11.18
2017-03-06T01:03:28.779Z,11.18
2017-03-06T01:03:43.417Z,11.18
2017-03-06T01:03:58.057Z,11.08
2017-03-06T01:04:12.648Z,11.18
2017-03-06T01:04:27.320Z,11.18
2017-03-06T01:04:41.948Z,11.08
2017-03-06T01:04:56.657Z,11.37
2017-03-06T01:05:11.253Z,11.37
2017-03-06T01:05:25.869Z,11.27
2017-03-06T01:05:40.638Z,11.27
2017-03-06T01:05:55.237Z,11.08
2017-03-06T01:06:09.857Z,11.18
2017-03-06T01:06:24.496Z,11.08
2017-03-06T01:06:39.098Z,11.18
2017-03-06T01:06:53.673Z,11.18
2017-03-06T01:07:08.214Z,11.08
2017-03-06T01:07:22.817Z,11.08
2017-03-06T01:07:37.484Z,11.27
2017-03-06T01:07:52.108Z,11.46
2017-03-06T01:08:06.743Z,11.46
2017-03-06T01:08:21.302Z,11.37
2017-03-06T01:08:35.939Z,11.56
2017-03-06T01:08:50.556Z,11.56
2017-03-06T01:09:05.103Z,11.56
2017-03-06T01:09:19.694Z,11.66
2017-03-06T01:09:34.250Z,11.46
2017-03-06T01:09:48.825Z,11.66
2017-03-06T01:10:03.451Z,11.66
2017-03-06T01:10:18.084Z,11.56
2017-03-06T01:10:32.935Z,11.37
2017-03-06T01:10:47.538Z,11.37
2017-03-06T01:11:02.161Z,11.37
2017-03-06T01:11:16.787Z,11.46
2017-03-06T01:11:31.437Z,11.46
2017-03-06T01:11:46.031Z,11.46
2017-03-06T01:12:00.635Z,11.46
2017-03-06T01:12:15.247Z,11.46
2017-03-06T01:12:29.833Z,11.37
2017-03-06T01:12:44.470Z,11.27
2017-03-06T01:12:59.098Z,11.37
2017-03-06T01:13:13.698Z,11.37
2017-03-06T01:13:28.287Z,11.56
2017-03-06T01:13:42.945Z,11.56
2017-03-06T01:13:57.582Z,11.37
2017-03-06T01:14:12.177Z,11.46
2017-03-06T01:14:26.802Z,11.37
2017-03-06T01:14:41.400Z,11.66
2017-03-06T01:14:56.009Z,11.56
2017-03-06T01:15:10.629Z,11.85
2017-03-06T01:15:25.267Z,12.04
2017-03-06T01:15:39.897Z,11.76
2017-03-06T01:15:54.509Z,11.94
2017-03-06T01:16:09.090Z,11.85
2017-03-06T01:16:23.651Z,11.76
2017-03-06T01:16:38.197Z,11.76
2017-03-06T01:16:52.740Z,12.14
2017-03-06T01:17:07.538Z,12.24
2017-03-06T01:17:22.171Z,12.24
2017-03-06T01:17:36.758Z,12.04
2017-03-06T01:17:51.381Z,12.33
2017-03-06T01:18:05.889Z,12.13
2017-03-06T01:18:20.437Z,12.42
2017-03-06T01:18:34.990Z,12.33
2017-03-06T01:18:49.531Z,12.23
2017-03-06T01:19:04.185Z,12.33
2017-03-06T01:19:18.846Z,12.42
2017-03-06T01:19:33.474Z,12.23
2017-03-06T01:19:48.039Z,11.94
2017-03-06T01:20:02.644Z,12.23
2017-03-06T01:20:17.283Z,12.13
2017-03-06T01:20:31.904Z,12.04
2017-03-06T01:20:46.575Z,11.94
2017-03-06T01:21:01.217Z,11.85
2017-03-06T01:21:15.882Z,11.94
2017-03-06T01:21:30.553Z,11.94
2017-03-06T01:21:45.261Z,11.85
2017-03-06T01:21:59.847Z,11.85
2017-03-06T01:22:14.491Z,11.75
2017-03-06T01:22:29.073Z,12.04
2017-03-06T01:22:43.631Z,12.04
2017-03-06T01:23:00.339Z,11.94
2017-03-06T01:23:15.001Z,11.85
2017-03-06T01:23:29.659Z,11.85
2017-03-06T01:23:44.242Z,11.94
2017-03-06T01:23:58.852Z,11.85
2017-03-06T01:24:13.467Z,11.65
2017-03-06T01:24:28.104Z,11.55
2017-03-06T01:24:42.723Z,11.56
2017-03-06T01:24:57.313Z,11.55
2017-03-06T01:25:11.934Z,11.56
2017-03-06T01:25:26.569Z,11.55
2017-03-06T01:25:41.388Z,11.56
2017-03-06T01:25:56.010Z,11.66
2017-03-06T01:26:10.590Z,11.37
2017-03-06T01:26:25.272Z,11.27
2017-03-06T01:26:39.841Z,11.37
2017-03-06T01:26:54.480Z,11.46
2017-03-06T01:27:09.117Z,11.37
2017-03-06T01:27:23.699Z,11.36
2017-03-06T01:27:38.303Z,11.37
2017-03-06T01:27:52.867Z,11.37
2017-03-06T01:28:07.429Z,11.37
2017-03-06T01:28:22.030Z,11.37
2017-03-06T01:28:36.604Z,11.37
2017-03-06T01:28:51.241Z,11.27
2017-03-06T01:29:05.901Z,11.36
2017-03-06T01:29:20.491Z,11.66
2017-03-06T01:29:35.166Z,11.56
2017-03-06T01:29:49.769Z,11.37
2017-03-06T01:30:04.355Z,11.46
2017-03-06T01:30:18.954Z,11.66
2017-03-06T01:30:33.497Z,11.56
2017-03-06T01:30:48.079Z,11.55
2017-03-06T01:31:02.719Z,11.66
2017-03-06T01:31:17.349Z,11.66
2017-03-06T01:31:32.002Z,11.85
2017-03-06T01:31:46.596Z,11.85
2017-03-06T01:32:01.173Z,11.85
2017-03-06T01:32:15.774Z,11.85
2017-03-06T01:32:30.392Z,11.85
2017-03-06T01:32:44.988Z,11.85
2017-03-06T01:32:59.626Z,11.75
2017-03-06T01:33:14.220Z,11.85
2017-03-06T01:33:33.323Z,11.85
2017-03-06T01:33:52.980Z,11.75
2017-03-06T01:34:07.561Z,11.75
2017-03-06T01:34:22.180Z,11.75
2017-03-06T01:34:36.780Z,11.85
2017-03-06T01:35:03.856Z,11.75
2017-03-06T01:35:18.462Z,11.94
2017-03-06T01:35:33.089Z,11.85
2017-03-06T01:35:47.687Z,11.85
2017-03-06T01:36:13.657Z,11.75
2017-03-06T01:36:28.280Z,11.85
2017-03-06T01:36:42.936Z,11.94
2017-03-06T01:36:58.642Z,11.46
2017-03-06T01:37:13.233Z,11.46
2017-03-06T01:37:27.882Z,11.56
2017-03-06T01:37:42.504Z,11.56
2017-03-06T01:38:00.161Z,11.46
2017-03-06T01:38:14.919Z,11.66
2017-03-06T01:38:29.541Z,11.66
2017-03-06T01:38:44.086Z,11.76
2017-03-06T01:38:58.923Z,11.94
2017-03-06T01:39:13.537Z,12.04
2017-03-06T01:39:28.174Z,12.14
2017-03-06T01:39:42.784Z,11.85
2017-03-06T01:39:57.370Z,12.04
2017-03-06T01:40:22.310Z,12.04
2017-03-06T01:40:47.401Z,12.43
2017-03-06T01:41:07.109Z,12.43
2017-03-06T01:41:52.635Z,12.24
2017-03-06T01:42:12.345Z,12.34
2017-03-06T01:42:52.060Z,12.43
2017-03-06T01:43:06.720Z,12.24
2017-03-06T01:43:21.351Z,12.34
2017-03-06T01:43:35.971Z,12.43
2017-03-06T01:43:50.625Z,12.34
2017-03-06T01:44:05.220Z,12.04
2017-03-06T01:44:22.928Z,12.14
2017-03-06T01:44:37.566Z,12.04
2017-03-06T01:44:52.224Z,12.24
2017-03-06T01:45:06.868Z,12.14
2017-03-06T01:45:21.506Z,12.14
2017-03-06T01:45:36.131Z,12.14
2017-03-06T01:45:50.730Z,12.14
2017-03-06T01:46:11.605Z,12.04
2017-03-06T01:46:26.244Z,12.04
2017-03-06T01:46:40.917Z,12.24
2017-03-06T01:47:29.696Z,12.04
2017-03-06T01:47:44.294Z,12.04
2017-03-06T01:48:02.001Z,12.43
2017-03-06T01:48:16.687Z,12.52
2017-03-06T01:48:32.143Z,12.62
2017-03-06T01:48:46.741Z,12.91
2017-03-06T01:49:01.345Z,13.1
2017-03-06T01:49:15.908Z,13.2
2017-03-06T01:49:30.570Z,13.68
2017-03-06T01:49:45.215Z,13.78
2017-03-06T01:49:59.863Z,13.78
2017-03-06T01:50:14.462Z,13.97
2017-03-06T01:50:29.073Z,14.26
2017-03-06T01:50:43.661Z,14.55
2017-03-06T01:50:58.306Z,14.36
2017-03-06T01:51:12.936Z,14.26
2017-03-06T01:51:27.567Z,14.26
2017-03-06T01:51:42.159Z,14.36
2017-03-06T01:51:56.752Z,14.45
2017-03-06T01:52:11.373Z,14.45
2017-03-06T01:52:26.014Z,14.64
2017-03-06T01:52:40.596Z,14.84
2017-03-06T01:52:55.438Z,14.94
2017-03-06T01:53:10.098Z,14.93
2017-03-06T01:53:24.654Z,14.94
2017-03-06T01:53:39.262Z,14.73
2017-03-06T01:53:53.834Z,15.02
2017-03-06T01:54:08.436Z,15.12
2017-03-06T01:54:23.027Z,15.6
2017-03-06T01:54:37.620Z,15.8
2017-03-06T01:54:52.199Z,16.28
2017-03-06T01:55:06.862Z,16.66
2017-03-06T01:55:21.466Z,16.75
2017-03-06T01:55:35.971Z,16.95
2017-03-06T01:55:50.589Z,17.05
2017-03-06T01:56:05.609Z,17.43
2017-03-06T01:56:20.256Z,17.33
2017-03-06T01:56:34.788Z,17.24
2017-03-06T01:56:49.376Z,17.14
2017-03-06T01:57:05.401Z,17.05
2017-03-06T01:57:20.019Z,17.14
2017-03-06T01:57:34.623Z,17.24
2017-03-06T01:57:49.252Z,17.24
2017-03-06T01:58:03.872Z,17.14
2017-03-06T01:58:18.497Z,16.75
2017-03-06T01:58:33.083Z,16.95
2017-03-06T01:58:47.712Z,16.56
2017-03-06T01:59:02.345Z,16.37
2017-03-06T01:59:16.941Z,16.47
2017-03-06T01:59:31.555Z,16.47
2017-03-06T01:59:46.137Z,16.18
2017-03-06T02:00:00.775Z,16.28
2017-03-06T02:00:15.366Z,15.99
2017-03-06T02:00:30.186Z,16.28
2017-03-06T02:00:44.808Z,16.18
2017-03-06T02:00:59.450Z,15.99
2017-03-06T02:01:14.050Z,15.7
2017-03-06T02:01:28.699Z,15.7
2017-03-06T02:01:43.332Z,15.8
2017-03-06T02:01:57.938Z,15.6
2017-03-06T02:02:12.533Z,15.5
2017-03-06T02:02:27.213Z,15.22
2017-03-06T02:02:41.862Z,15.12
2017-03-06T02:02:56.480Z,15.22
2017-03-06T02:03:11.050Z,15.02
2017-03-06T02:03:25.633Z,15.02
2017-03-06T02:03:40.276Z,14.93
2017-03-06T02:03:54.896Z,14.73
2017-03-06T02:04:09.523Z,15.02
2017-03-06T02:04:24.103Z,15.02
2017-03-06T02:04:38.718Z,15.22
2017-03-06T02:04:53.306Z,15.22
2017-03-06T02:05:07.873Z,15.12
2017-03-06T02:05:22.469Z,15.02
2017-03-06T02:05:37.131Z,14.93
2017-03-06T02:05:51.662Z,14.73
2017-03-06T02:06:06.217Z,14.93
2017-03-06T02:06:20.866Z,15.12
2017-03-06T02:06:35.518Z,15.12
2017-03-06T02:06:50.079Z,15.02
2017-03-06T02:07:04.712Z,15.22
2017-03-06T02:07:19.366Z,15.12
2017-03-06T02:07:34.016Z,15.02
2017-03-06T02:07:48.796Z,14.73
2017-03-06T02:08:03.449Z,14.83
2017-03-06T02:08:18.039Z,14.83
2017-03-06T02:08:32.597Z,14.83
2017-03-06T02:08:47.251Z,14.73
2017-03-06T02:09:01.839Z,14.73
2017-03-06T02:09:16.453Z,14.64
2017-03-06T02:09:31.027Z,14.83
2017-03-06T02:09:45.620Z,14.93
2017-03-06T02:10:00.181Z,14.83
2017-03-06T02:10:14.803Z,14.83
2017-03-06T02:10:29.488Z,14.93
2017-03-06T02:10:44.005Z,14.93
2017-03-06T02:10:58.577Z,14.83
2017-03-06T02:11:13.715Z,14.83
2017-03-06T02:11:28.310Z,14.64
2017-03-06T02:11:42.944Z,14.64
2017-03-06T02:11:57.532Z,14.54
2017-03-06T02:12:12.094Z,14.35
2017-03-06T02:12:26.745Z,14.54
2017-03-06T02:12:41.375Z,14.15
2017-03-06T02:12:56.036Z,14.15
2017-03-06T02:13:10.646Z,14.34
2017-03-06T02:13:25.254Z,14.25
2017-03-06T02:13:39.858Z,14.15
2017-03-06T02:13:54.537Z,14.35
2017-03-06T02:14:09.216Z,14.06
2017-03-06T02:14:23.840Z,13.96
2017-03-06T02:14:38.469Z,13.96
2017-03-06T02:14:53.134Z,13.96
2017-03-06T02:15:07.786Z,14.06
2017-03-06T02:15:22.306Z,14.15
2017-03-06T02:15:36.852Z,13.96
2017-03-06T02:15:51.468Z,13.96
2017-03-06T02:16:06.088Z,14.15
2017-03-06T02:16:20.752Z,14.06
2017-03-06T02:16:35.385Z,14.06
2017-03-06T02:16:50.048Z,13.96
2017-03-06T02:17:04.604Z,14.06
2017-03-06T02:17:19.480Z,14.15
2017-03-06T02:17:34.053Z,14.06
2017-03-06T02:17:48.699Z,13.87
2017-03-06T02:18:03.332Z,14.15
2017-03-06T02:18:17.994Z,14.15
2017-03-06T02:18:32.605Z,14.06
2017-03-06T02:18:47.140Z,14.15
2017-03-06T02:19:01.714Z,14.06
2017-03-06T02:19:16.313Z,13.87
2017-03-06T02:19:30.928Z,14.25
2017-03-06T02:19:45.530Z,13.96
2017-03-06T02:20:00.114Z,14.15
2017-03-06T02:20:14.761Z,14.15
2017-03-06T02:20:29.374Z,14.06
2017-03-06T02:20:44.002Z,14.06
2017-03-06T02:20:58.639Z,14.35
2017-03-06T02:21:13.296Z,14.35
2017-03-06T02:21:27.929Z,14.45
2017-03-06T02:21:42.537Z,14.73
2017-03-06T02:21:57.143Z,14.73
2017-03-06T02:22:11.781Z,14.64
2017-03-06T02:22:26.389Z,14.35
2017-03-06T02:22:40.915Z,14.15
2017-03-06T02:22:55.498Z,14.15
2017-03-06T02:23:10.183Z,14.06
2017-03-06T02:23:24.878Z,13.96
2017-03-06T02:23:39.476Z,14.15
2017-03-06T02:23:54.066Z,13.96
2017-03-06T02:24:08.641Z,14.06
2017-03-06T02:24:23.209Z,14.06
2017-03-06T02:24:37.854Z,13.87
2017-03-06T02:24:52.452Z,14.36
2017-03-06T02:25:07.034Z,14.94
2017-03-06T02:25:21.719Z,15.5
2017-03-06T02:25:36.341Z,15.7
2017-03-06T02:25:51.035Z,16.38
2017-03-06T02:26:05.697Z,17.05
2017-03-06T02:26:20.554Z,17.15
2017-03-06T02:26:35.142Z,17.25
2017-03-06T02:26:49.768Z,17.44
2017-03-06T02:27:04.353Z,17.44
2017-03-06T02:27:18.945Z,17.73
2017-03-06T02:27:33.533Z,18.21
2017-03-06T02:27:48.207Z,18.98
2017-03-06T02:28:02.798Z,19.27
2017-03-06T02:28:17.421Z,19.95
2017-03-06T02:28:32.064Z,20.62
2017-03-06T02:28:46.668Z,21.48
2017-03-06T02:29:01.199Z,23.13
2017-03-06T02:29:15.858Z,24.46
2017-03-06T02:29:30.478Z,25.04
2017-03-06T02:29:45.083Z,25.52
2017-03-06T02:29:59.669Z,25.62
2017-03-06T02:30:14.308Z,25.52
2017-03-06T02:30:29.191Z,25.23
2017-03-06T02:30:43.864Z,24.95
2017-03-06T02:30:58.430Z,25.13
2017-03-06T02:31:13.030Z,24.95
2017-03-06T02:31:27.644Z,24.95
2017-03-06T02:31:42.171Z,24.95
2017-03-06T02:31:56.766Z,25.04
2017-03-06T02:32:11.392Z,24.66
2017-03-06T02:32:26.048Z,24.66
2017-03-06T02:32:40.689Z,24.95
2017-03-06T02:32:55.297Z,25.23
2017-03-06T02:33:09.875Z,24.95
2017-03-06T02:33:24.445Z,25.04
2017-03-06T02:33:39.034Z,24.85
2017-03-06T02:33:53.649Z,24.37
2017-03-06T02:34:08.410Z,24.18
2017-03-06T02:34:24.405Z,24.85
2017-03-06T02:34:39.031Z,24.75
2017-03-06T02:34:53.718Z,24.95
2017-03-06T02:35:08.314Z,24.85
2017-03-06T02:35:22.864Z,25.04
2017-03-06T02:35:37.499Z,24.75
2017-03-06T02:35:52.144Z,24.85
2017-03-06T02:36:06.766Z,24.66
2017-03-06T02:36:21.362Z,24.37
2017-03-06T02:36:35.918Z,24.66
2017-03-06T02:36:50.551Z,24.56
2017-03-06T02:37:05.117Z,24.75
2017-03-06T02:37:19.717Z,24.85
2017-03-06T02:37:34.364Z,24.95
2017-03-06T02:37:48.976Z,24.95
2017-03-06T02:38:03.567Z,25.04
2017-03-06T02:38:18.117Z,24.85
2017-03-06T02:38:32.794Z,24.56
2017-03-06T02:38:47.387Z,24.46
2017-03-06T02:39:02.008Z,24.85
2017-03-06T02:39:16.559Z,25.43
2017-03-06T02:39:31.190Z,25.43
2017-03-06T02:39:45.794Z,24.95
2017-03-06T02:40:00.396Z,24.95
2017-03-06T02:40:14.977Z,24.75
2017-03-06T02:40:29.493Z,24.27
2017-03-06T02:40:44.087Z,24.66
2017-03-06T02:40:58.682Z,24.56
2017-03-06T02:41:13.356Z,24.66
2017-03-06T02:41:28.326Z,24.48
2017-03-06T02:41:42.931Z,24.86
2017-03-06T02:41:57.565Z,25.15
2017-03-06T02:42:12.153Z,25.24
2017-03-06T02:42:26.736Z,25.23
2017-03-06T02:42:41.315Z,25.13
2017-03-06T02:42:55.914Z,24.95
2017-03-06T02:43:10.517Z,24.86
2017-03-06T02:43:25.140Z,24.75
2017-03-06T02:43:39.726Z,24.27
2017-03-06T02:43:54.362Z,24.75
2017-03-06T02:44:08.997Z,24.37
2017-03-06T02:44:23.687Z,24.27
2017-03-06T02:44:38.309Z,24.95
2017-03-06T02:44:52.922Z,25.04
2017-03-06T02:45:07.527Z,24.96
2017-03-06T02:45:22.129Z,25.24
2017-03-06T02:45:36.766Z,25.73
2017-03-06T02:45:51.373Z,25.44
2017-03-06T02:46:05.977Z,25.44
2017-03-06T02:46:20.631Z,25.24
2017-03-06T02:46:35.373Z,24.96
2017-03-06T02:46:49.954Z,24.76
2017-03-06T02:47:04.462Z,24.86
2017-03-06T02:47:19.078Z,24.67
2017-03-06T02:47:33.717Z,24.96
2017-03-06T02:47:48.271Z,25.24
2017-03-06T02:48:02.881Z,25.34
2017-03-06T02:48:17.447Z,25.44
2017-03-06T02:48:32.636Z,25.34
2017-03-06T02:48:47.262Z,25.44
2017-03-06T02:49:01.947Z,26.11
2017-03-06T02:49:16.536Z,26.59
2017-03-06T02:49:31.114Z,26.79
2017-03-06T02:49:45.667Z,28.04
2017-03-06T02:50:00.264Z,29.1
2017-03-06T02:50:14.854Z,31.03
2017-03-06T02:50:29.436Z,33.05
2017-03-06T02:50:44.074Z,33.82
2017-03-06T02:50:58.641Z,35.08
2017-03-06T02:51:13.259Z,34.98
2017-03-06T02:51:27.968Z,36.23
2017-03-06T02:51:42.618Z,36.41
2017-03-06T02:51:57.222Z,35.64
2017-03-06T02:52:11.890Z,35.83
2017-03-06T02:52:26.477Z,35.06
2017-03-06T02:52:41.105Z,34.77
2017-03-06T02:52:55.740Z,34.38
2017-03-06T02:53:10.364Z,34
2017-03-06T02:53:24.932Z,33.61
2017-03-06T02:53:39.543Z,32.94
2017-03-06T02:53:54.161Z,32.75
2017-03-06T02:54:08.748Z,32.75
2017-03-06T02:54:23.377Z,32.26
2017-03-06T02:54:37.963Z,31.78
2017-03-06T02:54:52.582Z,32.17
2017-03-06T02:55:07.178Z,32.46
2017-03-06T02:55:21.792Z,32.36
2017-03-06T02:55:36.416Z,32.94
2017-03-06T02:55:50.995Z,33.03
2017-03-06T02:56:05.634Z,33.03
2017-03-06T02:56:20.256Z,33.03
2017-03-06T02:56:35.037Z,32.65
2017-03-06T02:56:49.583Z,32.84
2017-03-06T02:57:04.147Z,33.42
2017-03-06T02:57:18.759Z,33.91
2017-03-06T02:57:33.374Z,33.91
2017-03-06T02:57:48.044Z,33.91
2017-03-06T02:58:02.644Z,33.91
2017-03-06T02:58:17.265Z,33.81
2017-03-06T02:58:31.872Z,33.71
2017-03-06T02:58:46.466Z,33.71
2017-03-06T02:59:01.066Z,33.82
2017-03-06T02:59:15.672Z,32.86
2017-03-06T02:59:30.258Z,33.13
2017-03-06T02:59:44.826Z,32.67
2017-03-06T02:59:59.466Z,32.76
2017-03-06T03:00:14.060Z,32.18
2017-03-06T03:00:28.674Z,32.18
2017-03-06T03:00:43.306Z,32.18
2017-03-06T03:00:57.949Z,31.8
2017-03-06T03:01:12.593Z,32.09
2017-03-06T03:01:27.244Z,31.99
2017-03-06T03:01:41.850Z,32.38
2017-03-06T03:01:56.410Z,32.18
2017-03-06T03:02:10.954Z,32.18
2017-03-06T03:02:25.587Z,32.18
2017-03-06T03:02:40.167Z,32.38
2017-03-06T03:02:54.740Z,32.38
2017-03-06T03:03:09.363Z,32.18
2017-03-06T03:03:24.012Z,32.76
2017-03-06T03:03:38.681Z,32.57
2017-03-06T03:03:53.341Z,33.53
2017-03-06T03:04:07.939Z,33.44
2017-03-06T03:04:22.518Z,33.34
2017-03-06T03:04:37.147Z,32.57
2017-03-06T03:04:51.806Z,32.28
2017-03-06T03:05:06.451Z,32.38
2017-03-06T03:05:21.077Z,31.9
2017-03-06T03:05:35.688Z,31.99
2017-03-06T03:05:50.352Z,31.9
2017-03-06T03:06:04.992Z,31.22
2017-03-06T03:06:19.652Z,31.51
2017-03-06T03:06:34.276Z,31.41
2017-03-06T03:06:48.937Z,31.41
2017-03-06T03:07:03.582Z,31.32
2017-03-06T03:07:18.199Z,30.93
2017-03-06T03:07:32.765Z,30.55
2017-03-06T03:07:47.344Z,30.26
2017-03-06T03:08:03.219Z,30.35
2017-03-06T03:08:17.811Z,29.68
2017-03-06T03:08:32.462Z,29.87
2017-03-06T03:08:47.115Z,29.39
2017-03-06T03:09:01.689Z,29.58
2017-03-06T03:09:16.292Z,29.68
2017-03-06T03:09:30.891Z,29.1
2017-03-06T03:09:45.508Z,29.39
2017-03-06T03:10:00.037Z,29.29
2017-03-06T03:10:14.624Z,29.21
2017-03-06T03:10:29.190Z,29.2
2017-03-06T03:10:43.837Z,28.91
2017-03-06T03:10:58.463Z,28.81
2017-03-06T03:11:13.049Z,29.2
2017-03-06T03:11:27.644Z,29.02
2017-03-06T03:11:42.531Z,28.91
2017-03-06T03:11:57.156Z,28.42
2017-03-06T03:12:11.746Z,28.62
2017-03-06T03:12:26.386Z,28.81
2017-03-06T03:12:41.003Z,28.52